sensor_id;sensor_type;location;lat;lon;timestamp;temperature;humidity
20866;DHT22;10593;48.398;10.698;2023-05-16T00:00:19;14.00;54.70
20866;DHT22;10593;48.398;10.698;2023-05-16T00:02:45;14.00;54.60
20866;DHT22;10593;48.398;10.698;2023-05-16T00:05:12;14.00;54.60
20866;DHT22;10593;48.398;10.698;2023-05-16T00:07:42;13.90;54.40
20866;DHT22;10593;48.398;10.698;2023-05-16T00:10:09;13.90;54.30
20866;DHT22;10593;48.398;10.698;2023-05-16T00:12:35;13.90;54.10
20866;DHT22;10593;48.398;10.698;2023-05-16T00:15:02;13.80;54.10
20866;DHT22;10593;48.398;10.698;2023-05-16T00:17:29;13.80;54.40
20866;DHT22;10593;48.398;10.698;2023-05-16T00:19:55;13.80;54.40
20866;DHT22;10593;48.398;10.698;2023-05-16T00:22:26;13.70;54.70
20866;DHT22;10593;48.398;10.698;2023-05-16T00:24:51;13.70;54.90
20866;DHT22;10593;48.398;10.698;2023-05-16T00:27:17;13.70;55.10
20866;DHT22;10593;48.398;10.698;2023-05-16T00:29:43;13.70;55.20
20866;DHT22;10593;48.398;10.698;2023-05-16T00:32:09;13.70;55.30
20866;DHT22;10593;48.398;10.698;2023-05-16T00:34:35;13.70;55.40
20866;DHT22;10593;48.398;10.698;2023-05-16T00:37:00;13.70;55.40
20866;DHT22;10593;48.398;10.698;2023-05-16T00:39:26;13.70;55.50
20866;DHT22;10593;48.398;10.698;2023-05-16T00:41:52;13.70;55.40
20866;DHT22;10593;48.398;10.698;2023-05-16T00:44:17;13.70;55.40
20866;DHT22;10593;48.398;10.698;2023-05-16T00:46:43;13.70;55.30
20866;DHT22;10593;48.398;10.698;2023-05-16T00:49:09;13.70;55.00
20866;DHT22;10593;48.398;10.698;2023-05-16T00:51:38;13.60;54.80
20866;DHT22;10593;48.398;10.698;2023-05-16T00:54:04;13.60;54.80
20866;DHT22;10593;48.398;10.698;2023-05-16T00:56:31;13.60;54.90
20866;DHT22;10593;48.398;10.698;2023-05-16T00:58:58;13.60;55.00
20866;DHT22;10593;48.398;10.698;2023-05-16T01:01:25;13.60;55.20
20866;DHT22;10593;48.398;10.698;2023-05-16T01:03:52;13.60;55.30
20866;DHT22;10593;48.398;10.698;2023-05-16T01:06:19;13.60;55.20
20866;DHT22;10593;48.398;10.698;2023-05-16T01:08:44;13.60;55.00
20866;DHT22;10593;48.398;10.698;2023-05-16T01:16:58;13.50;54.40
20866;DHT22;10593;48.398;10.698;2023-05-16T01:28:10;13.40;54.70
20866;DHT22;10593;48.398;10.698;2023-05-16T01:30:39;13.40;54.70
20866;DHT22;10593;48.398;10.698;2023-05-16T01:33:06;13.40;54.60
20866;DHT22;10593;48.398;10.698;2023-05-16T01:35:33;13.40;54.50
20866;DHT22;10593;48.398;10.698;2023-05-16T01:38:17;13.40;54.50
20866;DHT22;10593;48.398;10.698;2023-05-16T01:41:08;13.30;54.40
20866;DHT22;10593;48.398;10.698;2023-05-16T01:43:45;13.30;54.40
20866;DHT22;10593;48.398;10.698;2023-05-16T01:46:30;13.30;54.40
20866;DHT22;10593;48.398;10.698;2023-05-16T01:49:24;13.20;54.40
20866;DHT22;10593;48.398;10.698;2023-05-16T01:51:58;13.20;55.00
20866;DHT22;10593;48.398;10.698;2023-05-16T01:54:30;13.20;54.40
20866;DHT22;10593;48.398;10.698;2023-05-16T01:56:58;13.20;54.20
20866;DHT22;10593;48.398;10.698;2023-05-16T01:59:26;13.20;54.30
20866;DHT22;10593;48.398;10.698;2023-05-16T02:01:53;13.20;54.10
20866;DHT22;10593;48.398;10.698;2023-05-16T02:04:21;13.20;54.10
20866;DHT22;10593;48.398;10.698;2023-05-16T02:06:49;13.10;54.20
20866;DHT22;10593;48.398;10.698;2023-05-16T02:09:15;13.10;54.40
20866;DHT22;10593;48.398;10.698;2023-05-16T02:11:41;13.10;54.60
20866;DHT22;10593;48.398;10.698;2023-05-16T02:14:06;13.00;54.80
20866;DHT22;10593;48.398;10.698;2023-05-16T02:16:33;13.00;54.80
20866;DHT22;10593;48.398;10.698;2023-05-16T02:18:58;13.00;54.90
20866;DHT22;10593;48.398;10.698;2023-05-16T02:21:24;13.00;54.90
20866;DHT22;10593;48.398;10.698;2023-05-16T02:23:50;13.00;55.00
20866;DHT22;10593;48.398;10.698;2023-05-16T02:26:15;13.00;54.90
20866;DHT22;10593;48.398;10.698;2023-05-16T02:28:41;13.00;55.00
20866;DHT22;10593;48.398;10.698;2023-05-16T02:31:06;13.00;55.00
20866;DHT22;10593;48.398;10.698;2023-05-16T02:33:32;13.00;55.10
20866;DHT22;10593;48.398;10.698;2023-05-16T02:35:58;13.00;55.30
20866;DHT22;10593;48.398;10.698;2023-05-16T02:38:24;13.00;55.30
20866;DHT22;10593;48.398;10.698;2023-05-16T02:40:50;13.00;55.10
20866;DHT22;10593;48.398;10.698;2023-05-16T02:43:16;13.00;54.90
20866;DHT22;10593;48.398;10.698;2023-05-16T02:45:42;13.00;54.80
20866;DHT22;10593;48.398;10.698;2023-05-16T02:48:07;13.00;54.80
20866;DHT22;10593;48.398;10.698;2023-05-16T02:50:34;12.90;54.70
20866;DHT22;10593;48.398;10.698;2023-05-16T02:53:00;12.90;54.70
20866;DHT22;10593;48.398;10.698;2023-05-16T02:55:27;12.90;54.80
20866;DHT22;10593;48.398;10.698;2023-05-16T02:57:53;12.90;54.70
20866;DHT22;10593;48.398;10.698;2023-05-16T03:00:19;12.80;54.70
20866;DHT22;10593;48.398;10.698;2023-05-16T03:02:45;12.80;54.70
20866;DHT22;10593;48.398;10.698;2023-05-16T03:05:11;12.70;54.60
20866;DHT22;10593;48.398;10.698;2023-05-16T03:07:38;12.70;54.80
20866;DHT22;10593;48.398;10.698;2023-05-16T03:10:04;12.70;54.80
20866;DHT22;10593;48.398;10.698;2023-05-16T03:12:30;12.70;54.80
20866;DHT22;10593;48.398;10.698;2023-05-16T03:14:56;12.70;54.70
20866;DHT22;10593;48.398;10.698;2023-05-16T03:17:21;12.70;54.70
20866;DHT22;10593;48.398;10.698;2023-05-16T03:19:47;12.60;54.70
20866;DHT22;10593;48.398;10.698;2023-05-16T03:22:13;12.60;54.60
20866;DHT22;10593;48.398;10.698;2023-05-16T03:24:39;12.60;54.70
20866;DHT22;10593;48.398;10.698;2023-05-16T03:27:05;12.60;54.60
20866;DHT22;10593;48.398;10.698;2023-05-16T03:29:30;12.60;54.60
20866;DHT22;10593;48.398;10.698;2023-05-16T03:31:56;12.60;54.60
20866;DHT22;10593;48.398;10.698;2023-05-16T03:34:22;12.50;54.70
20866;DHT22;10593;48.398;10.698;2023-05-16T03:36:48;12.50;54.80
20866;DHT22;10593;48.398;10.698;2023-05-16T03:39:15;12.50;55.00
20866;DHT22;10593;48.398;10.698;2023-05-16T03:41:42;12.50;55.00
20866;DHT22;10593;48.398;10.698;2023-05-16T03:44:08;12.50;55.60
20866;DHT22;10593;48.398;10.698;2023-05-16T03:46:34;12.50;55.00
20866;DHT22;10593;48.398;10.698;2023-05-16T03:49:00;12.50;55.00
20866;DHT22;10593;48.398;10.698;2023-05-16T03:51:26;12.50;54.80
20866;DHT22;10593;48.398;10.698;2023-05-16T03:53:52;12.50;54.80
20866;DHT22;10593;48.398;10.698;2023-05-16T03:56:18;12.40;54.70
20866;DHT22;10593;48.398;10.698;2023-05-16T03:58:44;12.40;54.70
20866;DHT22;10593;48.398;10.698;2023-05-16T04:01:10;12.50;55.00
20866;DHT22;10593;48.398;10.698;2023-05-16T04:03:35;12.40;54.90
20866;DHT22;10593;48.398;10.698;2023-05-16T04:06:40;12.40;54.70
20866;DHT22;10593;48.398;10.698;2023-05-16T04:09:05;12.40;54.60
20866;DHT22;10593;48.398;10.698;2023-05-16T04:11:31;12.40;54.60
20866;DHT22;10593;48.398;10.698;2023-05-16T04:13:58;12.40;54.70
20866;DHT22;10593;48.398;10.698;2023-05-16T04:16:25;12.40;54.70
20866;DHT22;10593;48.398;10.698;2023-05-16T04:18:51;12.30;54.60
20866;DHT22;10593;48.398;10.698;2023-05-16T04:21:17;12.30;54.60
20866;DHT22;10593;48.398;10.698;2023-05-16T04:23:43;12.30;54.60
20866;DHT22;10593;48.398;10.698;2023-05-16T04:26:08;12.30;54.60
20866;DHT22;10593;48.398;10.698;2023-05-16T04:28:34;12.30;54.80
20866;DHT22;10593;48.398;10.698;2023-05-16T04:31:00;12.30;54.80
20866;DHT22;10593;48.398;10.698;2023-05-16T04:33:26;12.30;54.90
20866;DHT22;10593;48.398;10.698;2023-05-16T04:35:52;12.30;55.00
20866;DHT22;10593;48.398;10.698;2023-05-16T04:38:19;12.30;55.10
20866;DHT22;10593;48.398;10.698;2023-05-16T04:40:45;12.30;55.20
20866;DHT22;10593;48.398;10.698;2023-05-16T04:43:11;12.30;55.30
20866;DHT22;10593;48.398;10.698;2023-05-16T04:45:36;12.30;55.40
20866;DHT22;10593;48.398;10.698;2023-05-16T04:48:02;12.30;55.70
20866;DHT22;10593;48.398;10.698;2023-05-16T04:50:28;12.30;55.80
20866;DHT22;10593;48.398;10.698;2023-05-16T04:52:54;12.30;55.90
20866;DHT22;10593;48.398;10.698;2023-05-16T04:55:20;12.30;56.20
20866;DHT22;10593;48.398;10.698;2023-05-16T04:57:45;12.30;56.40
20866;DHT22;10593;48.398;10.698;2023-05-16T05:00:11;12.40;56.50
20866;DHT22;10593;48.398;10.698;2023-05-16T05:02:38;12.40;56.50
20866;DHT22;10593;48.398;10.698;2023-05-16T05:05:04;12.40;56.80
20866;DHT22;10593;48.398;10.698;2023-05-16T05:07:31;12.40;56.90
20866;DHT22;10593;48.398;10.698;2023-05-16T05:09:57;12.40;57.00
20866;DHT22;10593;48.398;10.698;2023-05-16T05:12:23;12.40;57.10
20866;DHT22;10593;48.398;10.698;2023-05-16T05:14:49;12.40;57.20
20866;DHT22;10593;48.398;10.698;2023-05-16T05:17:16;12.50;57.40
20866;DHT22;10593;48.398;10.698;2023-05-16T05:19:42;12.50;57.50
20866;DHT22;10593;48.398;10.698;2023-05-16T05:22:08;12.50;57.50
20866;DHT22;10593;48.398;10.698;2023-05-16T05:24:33;12.50;57.50
20866;DHT22;10593;48.398;10.698;2023-05-16T05:26:59;12.50;57.60
20866;DHT22;10593;48.398;10.698;2023-05-16T05:29:24;12.50;57.70
20866;DHT22;10593;48.398;10.698;2023-05-16T05:31:50;12.60;57.90
20866;DHT22;10593;48.398;10.698;2023-05-16T05:34:16;12.60;58.00
20866;DHT22;10593;48.398;10.698;2023-05-16T05:36:41;12.60;58.20
20866;DHT22;10593;48.398;10.698;2023-05-16T05:39:08;12.60;58.30
20866;DHT22;10593;48.398;10.698;2023-05-16T05:41:34;12.70;58.30
20866;DHT22;10593;48.398;10.698;2023-05-16T05:44:00;12.70;58.40
20866;DHT22;10593;48.398;10.698;2023-05-16T05:46:25;12.70;58.50
20866;DHT22;10593;48.398;10.698;2023-05-16T05:48:51;12.70;58.70
20866;DHT22;10593;48.398;10.698;2023-05-16T05:51:17;12.70;58.80
20866;DHT22;10593;48.398;10.698;2023-05-16T05:53:43;12.70;59.50
20866;DHT22;10593;48.398;10.698;2023-05-16T05:56:09;12.80;59.10
20866;DHT22;10593;48.398;10.698;2023-05-16T05:58:35;12.80;59.30
20866;DHT22;10593;48.398;10.698;2023-05-16T06:01:00;12.90;59.70
20866;DHT22;10593;48.398;10.698;2023-05-16T06:03:26;12.90;59.90
20866;DHT22;10593;48.398;10.698;2023-05-16T06:05:52;12.90;60.10
20866;DHT22;10593;48.398;10.698;2023-05-16T06:08:18;13.00;60.40
20866;DHT22;10593;48.398;10.698;2023-05-16T06:10:43;13.00;60.40
20866;DHT22;10593;48.398;10.698;2023-05-16T06:13:09;13.00;60.40
20866;DHT22;10593;48.398;10.698;2023-05-16T06:15:35;13.10;60.60
20866;DHT22;10593;48.398;10.698;2023-05-16T06:18:00;13.10;60.90
20866;DHT22;10593;48.398;10.698;2023-05-16T06:20:26;13.20;61.00
20866;DHT22;10593;48.398;10.698;2023-05-16T06:22:52;13.30;61.40
20866;DHT22;10593;48.398;10.698;2023-05-16T06:25:17;13.30;61.60
20866;DHT22;10593;48.398;10.698;2023-05-16T06:27:44;13.40;62.00
20866;DHT22;10593;48.398;10.698;2023-05-16T06:30:10;13.40;62.50
20866;DHT22;10593;48.398;10.698;2023-05-16T06:32:35;13.50;63.00
20866;DHT22;10593;48.398;10.698;2023-05-16T06:35:01;13.60;63.30
20866;DHT22;10593;48.398;10.698;2023-05-16T06:37:27;13.70;63.80
20866;DHT22;10593;48.398;10.698;2023-05-16T06:39:53;13.80;64.00
20866;DHT22;10593;48.398;10.698;2023-05-16T06:42:18;13.90;64.00
20866;DHT22;10593;48.398;10.698;2023-05-16T06:44:45;14.00;64.20
20866;DHT22;10593;48.398;10.698;2023-05-16T06:47:11;14.10;64.30
20866;DHT22;10593;48.398;10.698;2023-05-16T06:49:37;14.20;64.10
20866;DHT22;10593;48.398;10.698;2023-05-16T06:52:02;14.30;63.90
20866;DHT22;10593;48.398;10.698;2023-05-16T06:54:28;14.40;63.50
20866;DHT22;10593;48.398;10.698;2023-05-16T06:56:54;14.50;63.30
20866;DHT22;10593;48.398;10.698;2023-05-16T06:59:20;14.60;62.90
20866;DHT22;10593;48.398;10.698;2023-05-16T07:01:45;14.70;62.10
20866;DHT22;10593;48.398;10.698;2023-05-16T07:04:11;14.70;62.10
20866;DHT22;10593;48.398;10.698;2023-05-16T07:06:37;14.70;62.00
20866;DHT22;10593;48.398;10.698;2023-05-16T07:09:02;14.70;61.60
20866;DHT22;10593;48.398;10.698;2023-05-16T07:11:28;14.70;61.40
20866;DHT22;10593;48.398;10.698;2023-05-16T07:13:54;14.80;61.30
20866;DHT22;10593;48.398;10.698;2023-05-16T07:16:20;14.80;61.30
20866;DHT22;10593;48.398;10.698;2023-05-16T07:18:46;14.80;61.30
20866;DHT22;10593;48.398;10.698;2023-05-16T07:21:12;14.80;61.20
20866;DHT22;10593;48.398;10.698;2023-05-16T07:23:37;14.80;61.10
20866;DHT22;10593;48.398;10.698;2023-05-16T07:26:03;14.80;60.90
20866;DHT22;10593;48.398;10.698;2023-05-16T07:28:29;14.80;61.20
20866;DHT22;10593;48.398;10.698;2023-05-16T07:30:54;14.80;61.30
20866;DHT22;10593;48.398;10.698;2023-05-16T07:33:23;14.90;61.50
20866;DHT22;10593;48.398;10.698;2023-05-16T07:35:49;14.80;61.40
20866;DHT22;10593;48.398;10.698;2023-05-16T07:38:15;14.90;61.60
20866;DHT22;10593;48.398;10.698;2023-05-16T07:40:41;14.90;61.90
20866;DHT22;10593;48.398;10.698;2023-05-16T07:43:06;14.90;62.00
20866;DHT22;10593;48.398;10.698;2023-05-16T07:45:32;15.00;61.70
20866;DHT22;10593;48.398;10.698;2023-05-16T07:47:58;14.90;61.30
20866;DHT22;10593;48.398;10.698;2023-05-16T07:50:24;15.00;61.20
20866;DHT22;10593;48.398;10.698;2023-05-16T07:52:50;15.00;61.10
20866;DHT22;10593;48.398;10.698;2023-05-16T07:55:16;15.00;61.30
20866;DHT22;10593;48.398;10.698;2023-05-16T07:57:42;15.00;61.30
20866;DHT22;10593;48.398;10.698;2023-05-16T08:00:08;15.00;61.40
20866;DHT22;10593;48.398;10.698;2023-05-16T08:02:35;15.00;61.40
20866;DHT22;10593;48.398;10.698;2023-05-16T08:05:01;15.00;61.60
20866;DHT22;10593;48.398;10.698;2023-05-16T08:07:27;15.00;61.70
20866;DHT22;10593;48.398;10.698;2023-05-16T08:09:52;15.00;61.80
20866;DHT22;10593;48.398;10.698;2023-05-16T08:12:18;15.00;61.70
20866;DHT22;10593;48.398;10.698;2023-05-16T08:14:44;15.10;61.70
20866;DHT22;10593;48.398;10.698;2023-05-16T08:17:09;15.00;61.70
20866;DHT22;10593;48.398;10.698;2023-05-16T08:19:35;15.00;61.90
20866;DHT22;10593;48.398;10.698;2023-05-16T08:22:01;15.10;61.90
20866;DHT22;10593;48.398;10.698;2023-05-16T08:24:27;15.10;61.90
20866;DHT22;10593;48.398;10.698;2023-05-16T08:26:52;15.10;61.70
20866;DHT22;10593;48.398;10.698;2023-05-16T08:29:18;15.10;61.60
20866;DHT22;10593;48.398;10.698;2023-05-16T08:31:44;15.10;61.50
20866;DHT22;10593;48.398;10.698;2023-05-16T08:34:09;15.20;61.30
20866;DHT22;10593;48.398;10.698;2023-05-16T08:36:38;15.10;61.20
20866;DHT22;10593;48.398;10.698;2023-05-16T08:39:04;15.20;61.40
20866;DHT22;10593;48.398;10.698;2023-05-16T08:41:30;15.20;61.40
20866;DHT22;10593;48.398;10.698;2023-05-16T08:43:56;15.20;61.60
20866;DHT22;10593;48.398;10.698;2023-05-16T08:46:22;15.20;61.60
20866;DHT22;10593;48.398;10.698;2023-05-16T08:48:51;15.20;61.60
20866;DHT22;10593;48.398;10.698;2023-05-16T08:51:19;15.20;61.80
20866;DHT22;10593;48.398;10.698;2023-05-16T08:53:53;15.20;61.80
20866;DHT22;10593;48.398;10.698;2023-05-16T08:56:24;15.20;61.70
20866;DHT22;10593;48.398;10.698;2023-05-16T08:58:51;15.20;61.70
20866;DHT22;10593;48.398;10.698;2023-05-16T09:01:20;15.30;61.70
20866;DHT22;10593;48.398;10.698;2023-05-16T09:03:51;15.30;61.60
20866;DHT22;10593;48.398;10.698;2023-05-16T09:06:17;15.30;61.70
20866;DHT22;10593;48.398;10.698;2023-05-16T09:08:43;15.30;61.80
20866;DHT22;10593;48.398;10.698;2023-05-16T09:11:10;15.30;61.70
20866;DHT22;10593;48.398;10.698;2023-05-16T09:13:37;15.30;61.70
20866;DHT22;10593;48.398;10.698;2023-05-16T09:18:36;15.40;61.60
20866;DHT22;10593;48.398;10.698;2023-05-16T09:21:06;15.40;61.60
20866;DHT22;10593;48.398;10.698;2023-05-16T09:23:33;15.40;61.60
20866;DHT22;10593;48.398;10.698;2023-05-16T09:25:59;15.40;61.60
20866;DHT22;10593;48.398;10.698;2023-05-16T09:28:25;15.40;61.60
20866;DHT22;10593;48.398;10.698;2023-05-16T09:30:52;15.50;61.60
20866;DHT22;10593;48.398;10.698;2023-05-16T09:33:21;15.50;61.50
20866;DHT22;10593;48.398;10.698;2023-05-16T09:36:00;15.50;61.60
20866;DHT22;10593;48.398;10.698;2023-05-16T09:38:27;15.50;61.70
20866;DHT22;10593;48.398;10.698;2023-05-16T09:40:54;15.50;61.50
20866;DHT22;10593;48.398;10.698;2023-05-16T09:43:25;15.60;61.50
20866;DHT22;10593;48.398;10.698;2023-05-16T09:45:51;15.60;61.70
20866;DHT22;10593;48.398;10.698;2023-05-16T09:48:18;15.60;61.50
20866;DHT22;10593;48.398;10.698;2023-05-16T09:50:50;15.60;61.80
20866;DHT22;10593;48.398;10.698;2023-05-16T09:53:24;15.60;61.10
20866;DHT22;10593;48.398;10.698;2023-05-16T09:56:03;15.60;60.70
20866;DHT22;10593;48.398;10.698;2023-05-16T09:58:33;15.70;60.80
20866;DHT22;10593;48.398;10.698;2023-05-16T10:01:01;15.70;60.80
20866;DHT22;10593;48.398;10.698;2023-05-16T10:03:27;15.70;61.20
20866;DHT22;10593;48.398;10.698;2023-05-16T10:05:54;15.80;61.40
20866;DHT22;10593;48.398;10.698;2023-05-16T10:08:22;15.80;61.70
20866;DHT22;10593;48.398;10.698;2023-05-16T10:10:54;15.90;62.10
20866;DHT22;10593;48.398;10.698;2023-05-16T10:13:22;15.90;62.00
20866;DHT22;10593;48.398;10.698;2023-05-16T10:15:57;16.00;62.00
20866;DHT22;10593;48.398;10.698;2023-05-16T10:18:31;16.00;61.50
20866;DHT22;10593;48.398;10.698;2023-05-16T10:21:03;16.00;61.00
20866;DHT22;10593;48.398;10.698;2023-05-16T10:23:32;16.10;61.00
20866;DHT22;10593;48.398;10.698;2023-05-16T10:25:59;16.10;61.10
20866;DHT22;10593;48.398;10.698;2023-05-16T10:28:30;16.10;61.00
20866;DHT22;10593;48.398;10.698;2023-05-16T10:30:57;16.20;61.00
20866;DHT22;10593;48.398;10.698;2023-05-16T10:33:23;16.20;60.80
20866;DHT22;10593;48.398;10.698;2023-05-16T10:35:50;16.20;60.50
20866;DHT22;10593;48.398;10.698;2023-05-16T10:38:18;16.20;60.40
20866;DHT22;10593;48.398;10.698;2023-05-16T10:40:46;16.20;60.30
20866;DHT22;10593;48.398;10.698;2023-05-16T10:43:22;16.30;60.40
20866;DHT22;10593;48.398;10.698;2023-05-16T10:46:01;16.30;60.40
20866;DHT22;10593;48.398;10.698;2023-05-16T10:48:37;16.30;59.90
20866;DHT22;10593;48.398;10.698;2023-05-16T10:51:39;16.30;59.70
20866;DHT22;10593;48.398;10.698;2023-05-16T10:54:09;16.40;59.20
20866;DHT22;10593;48.398;10.698;2023-05-16T10:56:38;16.30;59.30
20866;DHT22;10593;48.398;10.698;2023-05-16T10:59:03;16.40;59.20
20866;DHT22;10593;48.398;10.698;2023-05-16T11:01:51;16.30;58.90
20866;DHT22;10593;48.398;10.698;2023-05-16T11:04:18;16.30;58.80
20866;DHT22;10593;48.398;10.698;2023-05-16T11:06:49;16.40;58.90
20866;DHT22;10593;48.398;10.698;2023-05-16T11:09:22;16.40;58.90
20866;DHT22;10593;48.398;10.698;2023-05-16T11:14:24;16.40;58.90
20866;DHT22;10593;48.398;10.698;2023-05-16T11:17:05;16.40;58.60
20866;DHT22;10593;48.398;10.698;2023-05-16T11:19:51;16.40;58.60
20866;DHT22;10593;48.398;10.698;2023-05-16T11:22:25;16.50;58.10
20866;DHT22;10593;48.398;10.698;2023-05-16T11:27:29;16.50;58.40
20866;DHT22;10593;48.398;10.698;2023-05-16T11:32:35;16.50;57.80
20866;DHT22;10593;48.398;10.698;2023-05-16T11:35:06;16.60;57.90
20866;DHT22;10593;48.398;10.698;2023-05-16T11:37:34;16.60;57.90
20866;DHT22;10593;48.398;10.698;2023-05-16T11:40:04;16.60;58.00
20866;DHT22;10593;48.398;10.698;2023-05-16T11:42:41;16.60;58.30
20866;DHT22;10593;48.398;10.698;2023-05-16T11:45:14;16.60;58.60
20866;DHT22;10593;48.398;10.698;2023-05-16T11:47:43;16.60;58.70
20866;DHT22;10593;48.398;10.698;2023-05-16T11:50:12;16.60;58.80
20866;DHT22;10593;48.398;10.698;2023-05-16T11:52:47;16.60;59.10
20866;DHT22;10593;48.398;10.698;2023-05-16T11:55:15;16.50;59.30
20866;DHT22;10593;48.398;10.698;2023-05-16T11:57:42;16.50;59.60
20866;DHT22;10593;48.398;10.698;2023-05-16T12:00:20;16.50;60.00
20866;DHT22;10593;48.398;10.698;2023-05-16T12:02:49;16.40;59.90
20866;DHT22;10593;48.398;10.698;2023-05-16T12:05:16;16.40;60.00
20866;DHT22;10593;48.398;10.698;2023-05-16T12:07:43;16.40;60.60
20866;DHT22;10593;48.398;10.698;2023-05-16T12:10:11;16.40;60.80
20866;DHT22;10593;48.398;10.698;2023-05-16T12:12:43;16.30;60.90
20866;DHT22;10593;48.398;10.698;2023-05-16T12:15:10;16.30;61.10
20866;DHT22;10593;48.398;10.698;2023-05-16T12:17:39;16.20;61.20
20866;DHT22;10593;48.398;10.698;2023-05-16T12:20:06;16.20;61.70
20866;DHT22;10593;48.398;10.698;2023-05-16T12:22:47;16.10;61.50
20866;DHT22;10593;48.398;10.698;2023-05-16T12:25:27;16.10;62.00
20866;DHT22;10593;48.398;10.698;2023-05-16T12:28:01;16.00;62.20
20866;DHT22;10593;48.398;10.698;2023-05-16T12:30:29;16.00;62.10
20866;DHT22;10593;48.398;10.698;2023-05-16T12:33:00;16.00;62.10
20866;DHT22;10593;48.398;10.698;2023-05-16T12:35:32;16.00;62.30
20866;DHT22;10593;48.398;10.698;2023-05-16T12:37:59;16.00;62.30
20866;DHT22;10593;48.398;10.698;2023-05-16T12:40:29;15.90;62.10
20866;DHT22;10593;48.398;10.698;2023-05-16T12:42:55;15.90;62.10
20866;DHT22;10593;48.398;10.698;2023-05-16T12:45:22;15.90;62.10
20866;DHT22;10593;48.398;10.698;2023-05-16T12:47:48;15.90;62.10
20866;DHT22;10593;48.398;10.698;2023-05-16T12:50:15;15.90;62.20
20866;DHT22;10593;48.398;10.698;2023-05-16T12:52:47;15.80;62.10
20866;DHT22;10593;48.398;10.698;2023-05-16T12:55:17;15.80;62.20
20866;DHT22;10593;48.398;10.698;2023-05-16T12:57:44;15.80;62.10
20866;DHT22;10593;48.398;10.698;2023-05-16T13:00:12;15.80;62.10
20866;DHT22;10593;48.398;10.698;2023-05-16T13:02:40;15.80;62.20
20866;DHT22;10593;48.398;10.698;2023-05-16T13:05:06;15.80;62.40
20866;DHT22;10593;48.398;10.698;2023-05-16T13:07:35;15.70;62.30
20866;DHT22;10593;48.398;10.698;2023-05-16T13:10:04;15.70;62.40
20866;DHT22;10593;48.398;10.698;2023-05-16T13:12:31;15.70;62.40
20866;DHT22;10593;48.398;10.698;2023-05-16T13:14:56;15.70;62.60
20866;DHT22;10593;48.398;10.698;2023-05-16T13:17:22;15.70;62.40
20866;DHT22;10593;48.398;10.698;2023-05-16T13:19:48;15.70;62.40
20866;DHT22;10593;48.398;10.698;2023-05-16T13:22:14;15.70;61.80
20866;DHT22;10593;48.398;10.698;2023-05-16T13:24:40;15.70;60.60
20866;DHT22;10593;48.398;10.698;2023-05-16T13:27:06;15.60;59.80
20866;DHT22;10593;48.398;10.698;2023-05-16T13:29:31;15.60;59.50
20866;DHT22;10593;48.398;10.698;2023-05-16T13:31:57;15.50;59.60
20866;DHT22;10593;48.398;10.698;2023-05-16T13:34:23;15.50;59.50
20866;DHT22;10593;48.398;10.698;2023-05-16T13:36:49;15.40;59.60
20866;DHT22;10593;48.398;10.698;2023-05-16T13:39:14;15.40;59.80
20866;DHT22;10593;48.398;10.698;2023-05-16T13:41:40;15.40;60.40
20866;DHT22;10593;48.398;10.698;2023-05-16T13:44:06;15.40;60.80
20866;DHT22;10593;48.398;10.698;2023-05-16T13:46:33;15.30;61.00
20866;DHT22;10593;48.398;10.698;2023-05-16T13:48:58;15.40;61.50
20866;DHT22;10593;48.398;10.698;2023-05-16T13:51:24;15.30;61.60
20866;DHT22;10593;48.398;10.698;2023-05-16T13:53:50;15.30;62.00
20866;DHT22;10593;48.398;10.698;2023-05-16T13:56:16;15.30;62.40
20866;DHT22;10593;48.398;10.698;2023-05-16T13:58:42;15.30;62.70
20866;DHT22;10593;48.398;10.698;2023-05-16T14:01:07;15.30;62.70
20866;DHT22;10593;48.398;10.698;2023-05-16T14:03:33;15.30;62.80
20866;DHT22;10593;48.398;10.698;2023-05-16T14:06:01;15.30;62.80
20866;DHT22;10593;48.398;10.698;2023-05-16T14:08:27;15.30;63.00
20866;DHT22;10593;48.398;10.698;2023-05-16T14:10:53;15.30;62.70
20866;DHT22;10593;48.398;10.698;2023-05-16T14:13:19;15.30;62.70
20866;DHT22;10593;48.398;10.698;2023-05-16T14:15:45;15.30;63.00
20866;DHT22;10593;48.398;10.698;2023-05-16T14:18:10;15.30;62.10
20866;DHT22;10593;48.398;10.698;2023-05-16T14:20:37;15.30;61.60
20866;DHT22;10593;48.398;10.698;2023-05-16T14:23:03;15.30;61.10
20866;DHT22;10593;48.398;10.698;2023-05-16T14:25:28;15.20;60.70
20866;DHT22;10593;48.398;10.698;2023-05-16T14:27:54;15.20;60.60
20866;DHT22;10593;48.398;10.698;2023-05-16T14:30:20;15.20;60.40
20866;DHT22;10593;48.398;10.698;2023-05-16T14:32:46;15.10;60.50
20866;DHT22;10593;48.398;10.698;2023-05-16T14:35:11;15.10;60.60
20866;DHT22;10593;48.398;10.698;2023-05-16T14:37:37;15.10;60.90
20866;DHT22;10593;48.398;10.698;2023-05-16T14:40:03;15.10;61.20
20866;DHT22;10593;48.398;10.698;2023-05-16T14:42:30;15.00;61.10
20866;DHT22;10593;48.398;10.698;2023-05-16T14:44:56;15.00;61.60
20866;DHT22;10593;48.398;10.698;2023-05-16T14:47:22;15.00;61.10
20866;DHT22;10593;48.398;10.698;2023-05-16T14:49:48;14.90;61.20
20866;DHT22;10593;48.398;10.698;2023-05-16T14:52:14;14.90;61.40
20866;DHT22;10593;48.398;10.698;2023-05-16T14:54:40;14.90;61.70
20866;DHT22;10593;48.398;10.698;2023-05-16T14:57:05;14.90;61.70
20866;DHT22;10593;48.398;10.698;2023-05-16T14:59:31;14.90;61.80
20866;DHT22;10593;48.398;10.698;2023-05-16T15:01:57;14.80;61.90
20866;DHT22;10593;48.398;10.698;2023-05-16T15:04:24;14.90;62.00
20866;DHT22;10593;48.398;10.698;2023-05-16T15:06:51;14.90;62.00
20866;DHT22;10593;48.398;10.698;2023-05-16T15:09:16;14.90;62.20
20866;DHT22;10593;48.398;10.698;2023-05-16T15:11:43;14.90;62.40
20866;DHT22;10593;48.398;10.698;2023-05-16T15:14:09;14.80;62.50
20866;DHT22;10593;48.398;10.698;2023-05-16T15:16:35;14.80;62.30
20866;DHT22;10593;48.398;10.698;2023-05-16T15:19:00;14.80;62.30
20866;DHT22;10593;48.398;10.698;2023-05-16T15:21:26;14.80;62.30
20866;DHT22;10593;48.398;10.698;2023-05-16T15:23:52;14.80;62.40
20866;DHT22;10593;48.398;10.698;2023-05-16T15:26:19;14.80;62.50
20866;DHT22;10593;48.398;10.698;2023-05-16T15:28:47;14.80;62.80
20866;DHT22;10593;48.398;10.698;2023-05-16T15:31:12;14.80;63.10
20866;DHT22;10593;48.398;10.698;2023-05-16T15:33:38;14.80;63.30
20866;DHT22;10593;48.398;10.698;2023-05-16T15:36:04;14.80;63.60
20866;DHT22;10593;48.398;10.698;2023-05-16T15:38:30;14.80;63.60
20866;DHT22;10593;48.398;10.698;2023-05-16T15:40:56;14.90;63.70